Аэропорт: Сыктывкар. Сыктывкар

ICAO: UUYY

METAR:
2019-11-21 09:00:00
UUYY 210900Z 19003MPS 9999 OVC010 M10/M11 Q1039 R18/410147 NOSIG RMK QFE770/1027
METAR:
2019-11-21 08:00:00
TAF UUYY 210800Z 2109/2209 22003G08MPS 6000 BKN011 TEMPO 2109/2115 25003G10MPS 4000 -SHSN BR FEW007 BKN012CB TEMPO 2115/2209 25003G08MPS 3100 -SHSN BR BKN005 BKN011CB